Time;durP1;ratioP1;P1;durP2;ratioP2;P2;SDS_P1;SDS_P2;PMS_P1;PMS_P2;Temp;Humidity;BMP_temperature;BMP_pressure;BME280_temperature;BME280_humidity;BME280_pressure;Samples;Min_cycle;Max_cycle;Signal;HPM_P1;HPM_P2
2022/09/25 00:00:08;;;;;;;14.10;8.57;;;;;;;;;;5119301;28;20027;-72
2022/09/25 00:02:33;;;;;;;13.35;8.10;;;;;;;;;;5109568;28;20038;-71
2022/09/25 00:04:58;;;;;;;14.02;8.00;;;;;;;;;;5117868;28;20031;-71
2022/09/25 00:07:24;;;;;;;11.83;7.90;;;;;;;;;;5119151;28;20034;-71
2022/09/25 00:09:49;;;;;;;13.00;8.37;;;;;;;;;;5104471;28;20088;-72
2022/09/25 00:12:14;;;;;;;13.97;8.03;;;;;;;;;;5124682;28;20464;-72
2022/09/25 00:14:39;;;;;;;12.70;7.70;;;;;;;;;;5122031;28;20580;-73
2022/09/25 00:17:05;;;;;;;13.57;8.32;;;;;;;;;;5123708;28;20351;-72
2022/09/25 00:22:14;;;;;;;12.75;7.22;;;;;;;;;;5122994;28;20035;-72
2022/09/25 00:24:39;;;;;;;14.02;8.13;;;;;;;;;;5122217;27;20056;-72
2022/09/25 00:27:07;;;;;;;15.97;8.07;;;;;;;;;;5125541;27;20536;-72
2022/09/25 00:29:32;;;;;;;13.70;7.68;;;;;;;;;;5123125;27;20279;-72
2022/09/25 00:31:57;;;;;;;11.20;7.55;;;;;;;;;;5112417;28;20050;-72
2022/09/25 00:34:23;;;;;;;10.97;7.10;;;;;;;;;;5122516;27;20027;-72
2022/09/25 00:36:48;;;;;;;16.53;7.57;;;;;;;;;;5125269;27;20460;-71
2022/09/25 00:39:13;;;;;;;12.53;7.77;;;;;;;;;;5125849;27;20282;-72
2022/09/25 00:41:38;;;;;;;10.10;7.30;;;;;;;;;;5118422;27;20279;-72
2022/09/25 00:44:24;;;;;;;14.70;7.47;;;;;;;;;;5124745;27;20033;-71
2022/09/25 00:46:49;;;;;;;12.05;7.53;;;;;;;;;;5122001;27;20089;-72
2022/09/25 00:49:16;;;;;;;12.30;8.15;;;;;;;;;;5122346;27;20043;-72
2022/09/25 00:51:44;;;;;;;11.65;7.70;;;;;;;;;;5120012;27;20027;-72
2022/09/25 00:54:14;;;;;;;11.65;7.38;;;;;;;;;;5122967;27;20049;-72
2022/09/25 00:56:41;;;;;;;13.27;7.40;;;;;;;;;;5108715;27;20147;-72
2022/09/25 00:59:08;;;;;;;12.55;7.38;;;;;;;;;;5128092;27;20038;-72
2022/09/25 01:01:33;;;;;;;10.98;7.13;;;;;;;;;;5121874;27;20072;-72
2022/09/25 01:03:59;;;;;;;13.03;7.17;;;;;;;;;;5124100;27;20035;-72
2022/09/25 01:06:25;;;;;;;15.00;7.25;;;;;;;;;;5123596;27;20622;-72
2022/09/25 01:08:50;;;;;;;11.38;7.22;;;;;;;;;;5124914;27;20029;-72
2022/09/25 01:11:16;;;;;;;11.23;7.28;;;;;;;;;;5126483;27;20101;-73
2022/09/25 01:13:41;;;;;;;10.63;6.93;;;;;;;;;;5121149;27;20533;-72
2022/09/25 01:16:22;;;;;;;11.55;6.93;;;;;;;;;;5122636;27;20488;-73
2022/09/25 01:18:51;;;;;;;12.55;6.53;;;;;;;;;;5126458;27;20035;-72
2022/09/25 01:21:21;;;;;;;10.68;6.90;;;;;;;;;;5124290;27;20015;-72
2022/09/25 01:23:46;;;;;;;10.70;6.90;;;;;;;;;;5115464;27;20044;-72
2022/09/25 01:26:30;;;;;;;10.10;6.63;;;;;;;;;;5124522;27;20035;-73
2022/09/25 01:29:01;;;;;;;12.30;7.07;;;;;;;;;;5123437;27;20026;-72
2022/09/25 01:31:32;;;;;;;12.30;7.00;;;;;;;;;;5121570;27;20043;-73
2022/09/25 01:34:01;;;;;;;13.07;6.63;;;;;;;;;;5107542;27;20088;-72
2022/09/25 01:36:49;;;;;;;16.00;6.90;;;;;;;;;;5119137;27;20038;-72
2022/09/25 01:39:24;;;;;;;11.80;7.38;;;;;;;;;;5114164;27;20454;-72
2022/09/25 01:41:53;;;;;;;12.50;7.63;;;;;;;;;;5120567;27;20019;-73
2022/09/25 01:44:22;;;;;;;10.65;6.63;;;;;;;;;;5119707;27;20023;-72
2022/09/25 01:46:49;;;;;;;9.70;6.75;;;;;;;;;;5116253;27;20438;-72
2022/09/25 01:49:29;;;;;;;10.15;6.75;;;;;;;;;;5125409;27;20381;-72
2022/09/25 01:51:54;;;;;;;;;;;;;;;;;;5119688;27;20035;-72
2022/09/25 01:54:23;;;;;;;10.90;6.90;;;;;;;;;;5122551;27;19941;-72
2022/09/25 01:56:58;;;;;;;10.48;5.93;;;;;;;;;;5118918;27;20281;-72
2022/09/25 01:59:30;;;;;;;9.30;5.85;;;;;;;;;;5122861;27;20792;-72
2022/09/25 02:01:58;;;;;;;11.75;5.85;;;;;;;;;;5125716;27;20034;-73
2022/09/25 02:04:25;;;;;;;9.05;5.88;;;;;;;;;;5122762;27;20015;-73
2022/09/25 02:06:52;;;;;;;13.32;5.65;;;;;;;;;;5099558;27;20586;-73
2022/09/25 02:09:21;;;;;;;9.63;6.00;;;;;;;;;;5122438;27;20027;-72
2022/09/25 02:11:49;;;;;;;9.35;5.93;;;;;;;;;;5126881;27;20430;-73
2022/09/25 02:14:17;;;;;;;13.65;5.90;;;;;;;;;;5122298;27;20030;-73
2022/09/25 02:16:43;;;;;;;12.98;5.20;;;;;;;;;;5126872;27;20038;-72
2022/09/25 02:22:18;;;;;;;7.55;5.25;;;;;;;;;;5026586;28;20072;-73
2022/09/25 02:24:47;;;;;;;7.53;5.03;;;;;;;;;;5028907;28;20525;-73
2022/09/25 02:27:13;;;;;;;7.95;5.40;;;;;;;;;;5029919;28;20075;-73
2022/09/25 02:29:39;;;;;;;10.75;5.40;;;;;;;;;;5028497;28;20507;-73
2022/09/25 02:32:08;;;;;;;12.18;5.65;;;;;;;;;;5027456;28;20041;-72
2022/09/25 02:34:33;;;;;;;7.95;5.63;;;;;;;;;;5013653;28;20087;-73
2022/09/25 02:36:58;;;;;;;9.02;5.40;;;;;;;;;;5030141;28;20025;-73
2022/09/25 02:39:27;;;;;;;6.90;5.13;;;;;;;;;;5030615;28;20459;-71
2022/09/25 02:41:55;;;;;;;7.05;5.18;;;;;;;;;;5029005;28;20434;-71
2022/09/25 02:44:31;;;;;;;8.32;5.13;;;;;;;;;;5029248;28;20052;-71
2022/09/25 02:47:05;;;;;;;9.05;5.07;;;;;;;;;;5026480;28;20029;-72
2022/09/25 02:49:44;;;;;;;8.07;5.40;;;;;;;;;;5025470;28;20394;-71
2022/09/25 02:52:10;;;;;;;10.32;5.10;;;;;;;;;;5028859;28;20052;-71
2022/09/25 02:54:44;;;;;;;9.30;4.78;;;;;;;;;;5028050;28;20391;-71
2022/09/25 02:57:25;;;;;;;7.65;5.10;;;;;;;;;;5035444;28;20032;-72
2022/09/25 02:59:52;;;;;;;7.85;4.90;;;;;;;;;;5121442;27;20026;-71
2022/09/25 03:02:18;;;;;;;6.55;5.00;;;;;;;;;;5121529;27;20110;-71
2022/09/25 03:04:46;;;;;;;6.40;4.63;;;;;;;;;;5124928;27;20081;-72
2022/09/25 03:07:12;;;;;;;9.57;5.13;;;;;;;;;;5123336;27;20077;-71
2022/09/25 03:09:38;;;;;;;10.15;4.80;;;;;;;;;;5127329;27;20031;-71
2022/09/25 03:12:04;;;;;;;12.73;5.25;;;;;;;;;;5120838;27;20045;-71
2022/09/25 03:14:30;;;;;;;11.38;4.70;;;;;;;;;;5116136;27;20019;-71
2022/09/25 03:16:56;;;;;;;8.07;4.68;;;;;;;;;;5119489;27;20135;-72
2022/09/25 03:19:23;;;;;;;8.80;4.57;;;;;;;;;;5117582;28;20030;-72
2022/09/25 03:21:49;;;;;;;9.45;4.80;;;;;;;;;;5118142;28;20028;-71
2022/09/25 03:24:15;;;;;;;6.00;4.78;;;;;;;;;;5120814;28;20109;-72
2022/09/25 03:26:40;;;;;;;7.63;4.95;;;;;;;;;;5120424;28;20015;-71
2022/09/25 03:29:06;;;;;;;7.25;5.15;;;;;;;;;;5126255;28;20027;-72
2022/09/25 03:31:32;;;;;;;9.38;5.10;;;;;;;;;;5121733;28;20019;-72
2022/09/25 03:33:58;;;;;;;6.22;4.88;;;;;;;;;;5115896;28;20049;-71
2022/09/25 03:36:24;;;;;;;10.30;4.68;;;;;;;;;;5125673;28;20436;-71
2022/09/25 03:38:51;;;;;;;13.05;7.80;;;;;;;;;;5123423;28;20027;-72
2022/09/25 03:41:20;;;;;;;10.02;5.55;;;;;;;;;;5117600;28;20027;-72
2022/09/25 03:43:47;;;;;;;7.13;5.00;;;;;;;;;;5118069;28;20110;-71
2022/09/25 03:46:13;;;;;;;7.80;4.95;;;;;;;;;;5124213;28;20757;-72
2022/09/25 03:48:38;;;;;;;6.32;4.55;;;;;;;;;;5119843;28;20031;-72
2022/09/25 03:51:05;;;;;;;6.90;4.68;;;;;;;;;;5116850;28;20034;-72
2022/09/25 03:53:32;;;;;;;7.03;5.43;;;;;;;;;;5103656;28;20023;-72
2022/09/25 03:55:57;;;;;;;6.07;4.72;;;;;;;;;;5124085;28;20023;-71
2022/09/25 03:58:23;;;;;;;8.93;5.15;;;;;;;;;;5116674;28;20049;-71
2022/09/25 04:00:48;;;;;;;6.75;4.88;;;;;;;;;;5110774;27;20031;-71
2022/09/25 04:03:14;;;;;;;7.87;5.03;;;;;;;;;;5127203;27;20019;-72
2022/09/25 04:05:40;;;;;;;9.75;5.32;;;;;;;;;;5123916;27;20351;-72
2022/09/25 04:08:05;;;;;;;7.78;5.55;;;;;;;;;;5125315;27;20034;-72
2022/09/25 04:10:31;;;;;;;7.07;5.00;;;;;;;;;;5122189;27;20038;-72
2022/09/25 04:12:57;;;;;;;8.55;5.70;;;;;;;;;;5117701;27;20776;-72
2022/09/25 04:15:22;;;;;;;10.68;5.05;;;;;;;;;;5116924;27;20381;-71
2022/09/25 04:17:47;;;;;;;10.43;4.80;;;;;;;;;;5124288;27;20050;-72
2022/09/25 04:20:13;;;;;;;8.43;5.38;;;;;;;;;;5112457;27;20051;-71
2022/09/25 04:22:38;;;;;;;9.70;5.00;;;;;;;;;;5122662;27;20023;-72
2022/09/25 04:25:03;;;;;;;7.13;5.23;;;;;;;;;;5118896;27;20295;-72
2022/09/25 04:27:29;;;;;;;7.95;5.25;;;;;;;;;;5126918;27;20665;-71
2022/09/25 04:29:54;;;;;;;7.32;5.18;;;;;;;8.16;nan;100522.16;5119742;27;20036;-72
2022/09/25 04:35:03;;;;;;;13.70;5.45;;;;;;;;;;5124612;27;20026;-71
2022/09/25 04:37:29;;;;;;;9.30;5.65;;;;;;;;;;5108393;27;20388;-71
2022/09/25 04:39:55;;;;;;;7.67;5.50;;;;;;;;;;5107167;27;20121;-72
2022/09/25 04:42:23;;;;;;;8.88;6.18;;;;;;;;;;5120278;27;20275;-71
2022/09/25 04:44:55;;;;;;;8.38;5.07;;;;;;;;;;5107773;27;20510;-71
2022/09/25 04:47:21;;;;;;;9.55;5.95;;;;;;;;;;5106226;27;20066;-71
2022/09/25 04:49:47;;;;;;;9.20;5.68;;;;;;;;;;5119642;27;20099;-71
2022/09/25 04:52:14;;;;;;;9.85;5.68;;;;;;;;;;5122324;27;20023;-71
2022/09/25 04:54:39;;;;;;;8.02;5.40;;;;;;;;;;5117107;27;20465;-71
2022/09/25 04:57:04;;;;;;;10.98;5.65;;;;;;;;;;5126743;27;20026;-72
2022/09/25 04:59:30;;;;;;;10.07;5.63;;;;;;;;;;5122352;27;20028;-70
2022/09/25 05:01:55;;;;;;;7.80;5.45;;;;;;;;;;5124792;27;20317;-71
2022/09/25 05:04:20;;;;;;;9.13;6.07;;;;;;;;;;5125627;27;20035;-72
2022/09/25 05:06:45;;;;;;;11.30;5.87;;;;;;;;;;5120149;27;20267;-71
2022/09/25 05:09:11;;;;;;;13.77;6.20;;;;;;;;;;5118665;27;20278;-71
2022/09/25 05:11:36;;;;;;;9.77;5.77;;;;;;;;;;5119129;27;20024;-72
2022/09/25 05:14:01;;;;;;;8.97;5.33;;;;;;;;;;5117645;27;20050;-72
2022/09/25 05:16:29;;;;;;;7.55;5.28;;;;;;;;;;5120169;27;20068;-71
2022/09/25 05:18:55;;;;;;;9.35;5.70;;;;;;;;;;5117003;27;20019;-72
2022/09/25 05:21:20;;;;;;;10.23;6.00;;;;;;;;;;5125003;27;20023;-72
2022/09/25 05:23:45;;;;;;;11.48;6.93;;;;;;;;;;5118198;27;20042;-72
2022/09/25 05:26:11;;;;;;;11.40;7.43;;;;;;;;;;5118676;27;20467;-72
2022/09/25 05:28:36;;;;;;;15.57;6.88;;;;;;;;;;5125583;27;21553;-73
2022/09/25 05:31:02;;;;;;;12.07;6.65;;;;;;;;;;5122169;27;20015;-73
2022/09/25 05:33:27;;;;;;;13.05;6.97;;;;;;;;;;5108272;27;20046;-72
2022/09/25 05:35:53;;;;;;;17.52;6.43;;;;;;;;;;5117321;27;20027;-72
2022/09/25 05:38:18;;;;;;;10.83;5.80;;;;;;;;;;5116745;27;20031;-73
2022/09/25 05:40:43;;;;;;;9.23;6.03;;;;;;;;;;5119531;27;20705;-72
2022/09/25 05:43:09;;;;;;;9.85;5.82;;;;;;;;;;5119073;27;20027;-72
2022/09/25 05:45:34;;;;;;;8.23;5.45;;;;;;;;;;5121857;27;20024;-72
2022/09/25 05:48:05;;;;;;;13.18;6.85;;;;;;;;;;5118740;27;20022;-72
2022/09/25 05:50:33;;;;;;;18.80;7.82;;;;;;;;;;5117808;27;20023;-72
2022/09/25 05:52:59;;;;;;;25.90;9.15;;;;;;;;;;5119095;27;20015;-72
2022/09/25 05:55:25;;;;;;;25.15;10.00;;;;;;;;;;5120027;27;20033;-72
2022/09/25 05:57:50;;;;;;;12.88;7.35;;;;;;;;;;5100541;28;20474;-72
2022/09/25 06:00:16;;;;;;;13.50;6.68;;;;;;;;;;5120146;27;20027;-72
2022/09/25 06:02:41;;;;;;;10.15;6.45;;;;;;;;;;5103768;27;20039;-74
2022/09/25 06:05:07;;;;;;;14.52;6.05;;;;;;;;;;5121543;27;20017;-72
2022/09/25 06:07:33;;;;;;;9.50;5.82;;;;;;;;;;5100965;27;20032;-73
2022/09/25 06:09:58;;;;;;;8.25;5.90;;;;;;;;;;5120227;27;20026;-72
2022/09/25 06:12:24;;;;;;;11.57;5.87;;;;;;;;;;5123832;27;20376;-73
2022/09/25 06:14:50;;;;;;;9.27;6.32;;;;;;;;;;5118648;27;20287;-73
2022/09/25 06:17:15;;;;;;;8.93;5.93;;;;;;;;;;5119097;27;20114;-73
2022/09/25 06:19:40;;;;;;;12.10;6.30;;;;;;;;;;5114830;27;20099;-73
2022/09/25 06:22:05;;;;;;;7.80;5.90;;;;;;;;;;5120299;27;20019;-72
2022/09/25 06:24:31;;;;;;;9.97;5.93;;;;;;;;;;5122421;27;20035;-72
2022/09/25 06:26:56;;;;;;;11.68;6.10;;;;;;;;;;5117929;27;20026;-73
2022/09/25 06:29:21;;;;;;;12.50;6.77;;;;;;;;;;5117161;27;20023;-72
2022/09/25 06:31:46;;;;;;;12.63;7.50;;;;;;;;;;5118245;27;20629;-73
2022/09/25 06:34:12;;;;;;;14.60;7.27;;;;;;;;;;5120055;27;20340;-72
2022/09/25 06:36:37;;;;;;;12.90;7.10;;;;;;;;;;5120536;27;20119;-72
2022/09/25 06:39:03;;;;;;;13.07;7.10;;;;;;;;;;5118093;27;20673;-73
2022/09/25 06:41:28;;;;;;;14.10;7.00;;;;;;;;;;5117992;27;20106;-72
2022/09/25 06:43:54;;;;;;;9.83;6.40;;;;;;;;;;5117365;27;20055;-72
2022/09/25 06:46:19;;;;;;;18.15;7.20;;;;;;;;;;5118626;27;20728;-72
2022/09/25 06:48:53;;;;;;;11.55;6.30;;;;;;;;;;5119850;27;20034;-72
2022/09/25 06:51:18;;;;;;;11.43;6.13;;;;;;;;;;5116373;27;20023;-72
2022/09/25 06:53:43;;;;;;;10.80;5.80;;;;;;;;;;5117103;27;20024;-72
2022/09/25 06:56:09;;;;;;;14.90;6.33;;;;;;;;;;5120689;27;20023;-73
2022/09/25 06:58:34;;;;;;;10.47;6.70;;;;;;;;;;5116834;27;20071;-72
2022/09/25 07:01:00;;;;;;;12.18;6.90;;;;;;;;;;5115545;27;20780;-72
2022/09/25 07:03:44;;;;;;;13.20;6.20;;;;;;;;;;5117026;27;20157;-72
2022/09/25 07:06:11;;;;;;;9.77;5.50;;;;;;;;;;5118362;27;20098;-71
2022/09/25 07:08:36;;;;;;;9.77;5.82;;;;;;;;;;5117758;27;20027;-71
2022/09/25 07:11:02;;;;;;;10.23;6.00;;;;;;;;;;5117098;27;20534;-71
2022/09/25 07:13:28;;;;;;;14.45;6.50;;;;;;;;;;5104346;28;20426;-72
2022/09/25 07:15:58;;;;;;;12.45;6.10;;;;;;;;;;5119777;28;20035;-72
2022/09/25 07:18:23;;;;;;;;;;;;;;;;;;5117631;28;20035;-72
2022/09/25 07:20:48;;;;;;;12.05;5.53;;;;;;;;;;5119203;28;19911;-72
2022/09/25 07:23:14;;;;;;;10.60;6.05;;;;;;;;;;5118422;28;20053;-72
2022/09/25 07:25:39;;;;;;;10.85;5.30;;;;;;;;;;5118625;28;20070;-71
2022/09/25 07:28:06;;;;;;;13.27;5.20;;;;;;;;;;5117897;28;20022;-72
2022/09/25 07:30:31;;;;;;;8.13;5.10;;;;;;;;;;5115196;28;20092;-72
2022/09/25 07:32:57;;;;;;;7.60;4.90;;;;;;;;;;5122827;27;20011;-71
2022/09/25 07:35:22;;;;;;;8.37;5.13;;;;;;;;;;5121040;27;20030;-72
2022/09/25 07:37:47;;;;;;;9.07;5.55;;;;;;;;;;5124964;27;20368;-71
2022/09/25 07:40:13;;;;;;;7.83;5.43;;;;;;;;;;5121868;27;20457;-71
2022/09/25 07:42:39;;;;;;;8.60;5.07;;;;;;;;;;5123807;27;20272;-71
2022/09/25 07:45:04;;;;;;;9.50;5.22;;;;;;;;;;5122058;27;20102;-71
2022/09/25 07:47:30;;;;;;;10.40;5.10;;;;;;;;;;5118967;27;20008;-71
2022/09/25 07:49:55;;;;;;;8.50;4.95;;;;;;;;;;5124956;27;20019;-71
2022/09/25 07:52:20;;;;;;;7.77;5.43;;;;;;;;;;5124389;27;20027;-72
2022/09/25 07:54:46;;;;;;;6.43;4.47;;;;;;;;;;5119848;27;20098;-71
2022/09/25 07:57:12;;;;;;;8.38;5.60;;;;;;;;;;5121460;27;20047;-74
2022/09/25 07:59:37;;;;;;;10.77;5.05;;;;;;;;;;5119673;27;20019;-67
2022/09/25 08:02:04;;;;;;;8.02;4.78;;;;;;;;;;5121579;27;20034;-68
2022/09/25 08:04:29;;;;;;;7.15;4.20;;;;;;;;;;5126124;27;20020;-68
2022/09/25 08:06:56;;;;;;;7.85;4.53;;;;;;;;;;5124868;27;20068;-68
2022/09/25 08:09:22;;;;;;;9.45;4.70;;;;;;;;;;5124336;27;20031;-68
2022/09/25 08:11:47;;;;;;;8.03;4.43;;;;;;;;;;5128799;27;20123;-68
2022/09/25 08:14:17;;;;;;;5.63;4.13;;;;;;;;;;5123187;27;20328;-68
2022/09/25 08:16:42;;;;;;;;;;;;;;;;;;5125237;27;20401;-67
2022/09/25 08:19:07;;;;;;;6.23;4.37;;;;;;;;;;5126879;27;19911;-67
2022/09/25 08:21:33;;;;;;;6.93;4.70;;;;;;;;;;5121509;27;20271;-66
2022/09/25 08:23:59;;;;;;;8.38;4.32;;;;;;;;;;5126260;27;20039;-67
2022/09/25 08:26:27;;;;;;;6.50;4.43;;;;;;;;;;5105055;27;20358;-67
2022/09/25 08:28:52;;;;;;;6.90;3.60;;;;;;;;;;5122458;27;20031;-67
2022/09/25 08:31:18;;;;;;;5.18;3.58;;;;;;;;;;5124689;27;20115;-67
2022/09/25 08:33:47;;;;;;;7.90;3.63;;;;;;;;;;5126241;27;20011;-67
2022/09/25 08:36:12;;;;;;;6.53;3.70;;;;;;;;;;5101854;27;20051;-67
2022/09/25 08:38:38;;;;;;;6.00;3.10;;;;;;;;;;5107303;27;20059;-65
2022/09/25 08:41:22;;;;;;;6.45;3.35;;;;;;;;;;5123005;27;20023;-67
2022/09/25 08:44:04;;;;;;;5.38;3.42;;;;;;;;;;5125829;27;20444;-67
2022/09/25 08:49:25;;;;;;;4.63;2.90;;;;;;;;;;5118142;27;20034;-67
2022/09/25 08:51:51;;;;;;;5.10;3.13;;;;;;;;;;5127518;27;20749;-67
2022/09/25 08:54:27;;;;;;;4.80;3.20;;;;;;;;;;5125140;27;20046;-67
2022/09/25 08:56:54;;;;;;;4.15;2.95;;;;;;;;;;5120728;27;20106;-67
2022/09/25 08:59:41;;;;;;;6.72;3.15;;;;;;;;;;5122334;27;20100;-67
2022/09/25 09:02:20;;;;;;;4.65;2.92;;;;;;;;;;5125231;27;20030;-67
2022/09/25 09:04:47;;;;;;;5.47;3.30;;;;;;;;;;5124799;27;20117;-67
2022/09/25 09:07:36;;;;;;;4.80;2.83;;;;;;;;;;5122167;27;20476;-66
2022/09/25 09:10:33;;;;;;;4.82;3.38;;;;;;;;;;5104039;27;20504;-66
2022/09/25 09:13:03;;;;;;;10.65;3.25;;;;;;;;;;5039563;28;20056;-67
2022/09/25 09:15:38;;;;;;;8.07;3.03;;;;;;;;;;5046889;28;20037;-67
2022/09/25 09:18:15;;;;;;;4.85;2.90;;;;;;;;;;5047355;28;20044;-66
2022/09/25 09:20:48;;;;;;;9.73;2.70;;;;;;;;;;5044255;28;20079;-66
2022/09/25 09:23:16;;;;;;;3.47;2.63;;;;;;;;;;5044933;28;20065;-67
2022/09/25 09:26:04;;;;;;;4.80;3.00;;;;;;;;;;5045747;28;20061;-67
2022/09/25 09:28:35;;;;;;;3.70;3.25;;;;;;;;;;5045761;28;20505;-66
2022/09/25 09:31:13;;;;;;;4.85;2.63;;;;;;;;;;5047181;28;20032;-66
2022/09/25 09:33:52;;;;;;;5.20;2.95;;;;;;;;;;5047279;28;20057;-67
2022/09/25 09:36:17;;;;;;;;;;;;;;;;;;5043957;28;20473;-65
2022/09/25 09:38:51;;;;;;;4.57;3.07;;;;;;;;;;5046138;28;20012;-66
2022/09/25 09:41:20;;;;;;;5.13;2.90;;;;;;;;;;5045867;28;20521;-66
2022/09/25 09:43:57;;;;;;;5.63;2.70;;;;;;;;;;5030128;28;20417;-66
2022/09/25 09:46:30;;;;;;;6.43;2.60;;;;;;;;;;5033755;28;20033;-66
2022/09/25 09:49:08;;;;;;;3.30;2.47;;;;;;;;;;5081933;28;20039;-67
2022/09/25 09:51:40;;;;;;;7.22;2.90;;;;;;;;;;5100802;28;20387;-67
2022/09/25 09:54:16;;;;;;;4.93;2.80;;;;;;;18.14;nan;100465.81;5093166;28;20031;-66
2022/09/25 09:56:45;;;;;;;4.85;2.42;;;;;;;;;;5100904;28;20504;-68
2022/09/25 09:59:14;;;;;;;5.32;2.90;;;;;;;;;;5098364;28;20055;-67
2022/09/25 10:01:43;;;;;;;9.80;3.13;;;;;;;18.35;nan;100437.19;5098565;28;20474;-67
2022/09/25 10:04:19;;;;;;;4.00;2.65;;;;;;;;;;5099212;28;20035;-66
2022/09/25 10:06:55;;;;;;;4.30;2.50;;;;;;;;;;5100022;28;20501;-66
2022/09/25 10:09:23;;;;;;;6.47;2.60;;;;;;;;;;5103283;28;20028;-68
2022/09/25 10:12:01;;;;;;;6.40;2.28;;;;;;;18.54;nan;100406.13;5100015;28;20027;-67
2022/09/25 10:14:31;;;;;;;6.38;2.58;;;;;;;;;;5103405;28;20027;-67
2022/09/25 10:16:56;;;;;;;;;;;;;;;18.64;nan;100456.72;5099719;28;20376;-66
2022/09/25 10:19:23;;;;;;;3.97;2.55;;;;;;;;;;5101812;28;19908;-66
2022/09/25 10:21:56;;;;;;;6.50;2.90;;;;;;;18.75;nan;100430.78;5097367;28;20051;-66
2022/09/25 10:24:57;;;;;;;7.45;2.75;;;;;;;18.80;nan;100416.66;5107324;27;20043;-66
2022/09/25 10:27:42;;;;;;;4.65;2.60;;;;;;;18.85;nan;100376.59;5118698;27;20926;-67
2022/09/25 10:30:08;;;;;;;5.28;2.85;;;;;;;18.91;nan;100424.28;5123395;27;20022;-67
2022/09/25 10:33:01;;;;;;;4.90;2.97;;;;;;;18.96;nan;100418.09;5118044;27;20023;-66
2022/09/25 10:35:36;;;;;;;5.00;2.38;;;;;;;18.99;nan;100435.44;5109396;27;20453;-66
2022/09/25 10:38:02;;;;;;;7.72;2.90;;;;;;;;;;5105331;28;20032;-67
2022/09/25 10:40:36;;;;;;;5.03;3.45;;;;;;;19.07;nan;100435.63;5102570;27;20118;-67
2022/09/25 10:43:15;;;;;;;6.78;4.78;;;;;;;19.12;nan;100448.13;5121817;27;20361;-68
2022/09/25 10:45:41;;;;;;;5.97;3.97;;;;;;;19.11;nan;100439.31;5120000;27;20019;-68
2022/09/25 10:51:20;;;;;;;6.80;3.00;;;;;;;;;;5121806;27;20121;-67
2022/09/25 10:53:47;;;;;;;3.85;2.92;;;;;;;19.20;nan;100433.38;5104791;27;20365;-67
2022/09/25 10:56:26;;;;;;;4.97;2.67;;;;;;;19.23;nan;100425.59;5122726;27;20035;-67
2022/09/25 10:58:56;;;;;;;4.43;3.22;;;;;;;19.26;nan;100440.25;5115170;27;20483;-68
2022/09/25 11:01:35;;;;;;;4.13;2.85;;;;;;;19.29;nan;100448.50;5118693;27;20122;-67
2022/09/25 11:04:07;;;;;;;4.90;2.80;;;;;;;19.29;nan;100443.16;5114260;27;20044;-67
2022/09/25 11:06:34;;;;;;;5.60;2.95;;;;;;;19.28;nan;100438.91;5106723;28;20126;-68
2022/09/25 11:09:07;;;;;;;6.30;3.40;;;;;;;19.05;nan;100418.28;5120620;27;20031;-67
2022/09/25 11:11:32;;;;;;;7.25;3.50;;;;;;;19.30;nan;100434.06;5109804;27;20023;-68
2022/09/25 11:14:02;;;;;;;4.53;3.20;;;;;;;19.30;nan;100435.97;5121276;27;20038;-68
2022/09/25 11:16:46;;;;;;;8.13;4.57;;;;;;;19.28;nan;100438.13;5119178;27;20421;-67
2022/09/25 11:19:30;;;;;;;9.40;4.80;;;;;;;19.27;nan;100429.28;5118415;27;20027;-68
2022/09/25 11:22:03;;;;;;;9.00;4.22;;;;;;;19.28;nan;100427.44;5104464;28;20385;-67
2022/09/25 11:24:55;;;;;;;3.53;2.72;;;;;;;19.27;nan;100423.94;5117475;28;20378;-68
2022/09/25 11:27:32;;;;;;;6.00;3.10;;;;;;;19.24;nan;100421.84;5114765;28;20485;-68
2022/09/25 11:30:17;;;;;;;6.28;2.70;;;;;;;19.24;nan;100423.72;5124432;28;20103;-68
2022/09/25 11:33:20;;;;;;;6.03;2.78;;;;;;;19.22;nan;100428.53;5117015;28;20075;-68
2022/09/25 11:36:04;;;;;;;3.95;2.75;;;;;;;19.22;nan;100413.31;5117349;28;20495;-69
2022/09/25 11:41:47;;;;;;;6.40;3.80;;;;;;;19.24;nan;100416.50;5117384;28;20586;-68
2022/09/25 11:44:33;;;;;;;6.47;3.78;;;;;;;19.22;nan;100415.19;5116730;28;20036;-67
2022/09/25 11:47:03;;;;;;;13.23;4.00;;;;;;;19.20;nan;100404.81;5115577;28;20023;-68
2022/09/25 11:49:36;;;;;;;8.73;4.18;;;;;;;19.19;nan;100387.19;5120092;28;20373;-67
2022/09/25 11:52:15;;;;;;;8.85;4.40;;;;;;;19.17;nan;100400.03;5120928;28;20103;-68
2022/09/25 11:55:02;;;;;;;6.70;4.10;;;;;;;19.16;nan;100394.97;5113288;28;20378;-68
2022/09/25 11:57:33;;;;;;;5.45;4.00;;;;;;;19.12;nan;100398.19;5119337;28;20062;-68
2022/09/25 12:00:25;;;;;;;5.43;3.90;;;;;;;;;;5117549;28;20490;-69
2022/09/25 12:03:07;;;;;;;6.20;3.50;;;;;;;19.07;nan;100378.78;5106195;28;20499;-68
2022/09/25 12:05:34;;;;;;;5.63;3.53;;;;;;;19.05;nan;100367.59;5126615;28;20023;-67
2022/09/25 12:08:22;;;;;;;5.32;3.05;;;;;;;19.03;nan;100383.06;5108495;28;20481;-68
2022/09/25 12:11:01;;;;;;;4.32;3.00;;;;;;;18.93;nan;100346.63;5124228;28;20022;-69
2022/09/25 12:13:43;;;;;;;5.70;3.00;;;;;;;19.01;nan;100382.56;5120995;28;20059;-69
2022/09/25 12:16:40;;;;;;;5.68;2.70;;;;;;;19.00;nan;100375.66;5120040;28;20461;-69
2022/09/25 12:19:22;;;;;;;5.53;3.05;;;;;;;18.99;nan;100358.06;5123823;27;20015;-68
2022/09/25 12:22:29;;;;;;;7.35;3.05;;;;;;;18.98;nan;100335.88;5114439;27;20042;-68
2022/09/25 12:25:24;;;;;;;4.07;3.22;;;;;;;18.99;nan;100339.38;5066524;28;20655;-67
2022/09/25 12:28:10;;;;;;;5.55;3.28;;;;;;;19.00;nan;100299.03;5081020;28;21503;-67
2022/09/25 12:30:44;;;;;;;5.05;3.08;;;;;;;19.02;nan;100354.81;5081825;28;20067;-68
2022/09/25 12:33:21;;;;;;;4.00;3.10;;;;;;;19.01;nan;100334.53;5079881;28;20077;-66
2022/09/25 12:36:09;;;;;;;7.60;3.33;;;;;;;19.05;nan;100338.22;5084734;28;20122;-67
2022/09/25 12:38:36;;;;;;;6.50;3.03;;;;;;;;;;5085552;28;20546;-67
2022/09/25 12:41:16;;;;;;;6.68;3.47;;;;;;;19.09;nan;100347.28;5084458;28;20896;-68
2022/09/25 12:43:54;;;;;;;4.25;3.08;;;;;;;19.14;nan;100336.53;5078275;28;20063;-67
2022/09/25 12:46:32;;;;;;;4.80;3.20;;;;;;;19.19;nan;100343.69;5084725;28;20021;-67
2022/09/25 12:49:11;;;;;;;7.65;3.60;;;;;;;19.19;nan;100347.16;5082017;28;20068;-65
2022/09/25 12:51:50;;;;;;;7.10;3.13;;;;;;;19.19;nan;100319.66;5084857;28;20110;-67
2022/09/25 12:54:25;;;;;;;5.93;3.53;;;;;;;19.17;nan;100333.28;5086898;28;20548;-68
2022/09/25 12:56:53;;;;;;;7.63;3.15;;;;;;;19.17;nan;100341.28;5082777;28;20039;-68
2022/09/25 12:59:30;;;;;;;6.35;3.90;;;;;;;19.18;nan;100342.91;5083485;28;20119;-73
2022/09/25 13:02:00;;;;;;;6.35;3.28;;;;;;;19.17;nan;100325.28;5109869;27;20034;-73
2022/09/25 13:05:02;;;;;;;5.18;3.55;;;;;;;19.18;nan;100331.41;5113197;27;20023;-72
2022/09/25 13:07:42;;;;;;;5.03;3.10;;;;;;;19.15;nan;100315.97;5114220;27;20653;-72
2022/09/25 13:10:29;;;;;;;8.23;3.72;;;;;;;19.12;nan;100326.13;5127721;27;20034;-71
2022/09/25 13:12:59;;;;;;;5.88;3.58;;;;;;;19.11;nan;100307.75;5106012;27;20102;-72
2022/09/25 13:15:29;;;;;;;9.23;3.65;;;;;;;19.09;nan;100313.34;5120253;27;20039;-72
2022/09/25 13:17:55;;;;;;;6.38;3.60;;;;;;;;;;5103011;27;20027;-70
2022/09/25 13:20:49;;;;;;;7.05;3.50;;;;;;;19.18;nan;100294.84;5121676;27;20042;-71
2022/09/25 13:23:32;;;;;;;4.55;3.40;;;;;;;19.21;nan;100296.16;5108730;27;20035;-69
2022/09/25 13:26:30;;;;;;;5.07;3.35;;;;;;;19.24;nan;100258.19;5116979;27;20039;-71
2022/09/25 13:28:56;;;;;;;4.90;3.25;;;;;;;19.28;nan;100296.59;5112680;27;20065;-70
2022/09/25 13:31:21;;;;;;;6.15;3.50;;;;;;;19.33;nan;100285.88;5117099;27;20015;-70
2022/09/25 13:33:50;;;;;;;6.40;3.10;;;;;;;19.38;nan;100309.81;5120320;27;20023;-71
2022/09/25 13:36:22;;;;;;;5.47;3.70;;;;;;;19.40;nan;100305.00;5118441;27;20315;-71
2022/09/25 13:42:06;;;;;;;4.90;3.60;;;;;;;19.30;nan;100414.59;5117521;27;20058;-71
2022/09/25 13:44:41;;;;;;;5.70;3.42;;;;;;;19.50;nan;100301.41;5123973;27;21216;-69
2022/09/25 13:47:28;;;;;;;7.50;3.13;;;;;;;19.60;nan;100284.44;5114287;27;20107;-70
2022/09/25 13:50:21;;;;;;;7.93;3.63;;;;;;;19.63;nan;100233.13;5115312;27;20026;-72
2022/09/25 13:52:46;;;;;;;7.47;3.42;;;;;;;19.67;nan;100266.19;5088008;27;20043;-71
2022/09/25 13:55:12;;;;;;;6.85;3.58;;;;;;;19.64;nan;100280.91;5099265;28;20024;-71
2022/09/25 13:57:59;;;;;;;6.28;3.20;;;;;;;19.68;nan;100284.66;5114969;27;20030;-71
2022/09/25 14:00:52;;;;;;;4.43;3.22;;;;;;;19.70;nan;100279.78;5119579;27;20036;-71
2022/09/25 14:03:42;;;;;;;7.40;3.53;;;;;;;19.69;nan;100266.72;5115783;27;20019;-71
2022/09/25 14:06:18;;;;;;;5.05;3.40;;;;;;;19.71;nan;100294.75;5120138;27;20100;-71
2022/09/25 14:08:46;;;;;;;4.47;3.30;;;;;;;19.68;nan;100273.97;5117992;27;20027;-70
2022/09/25 14:11:17;;;;;;;8.98;3.38;;;;;;;19.64;nan;100216.81;5117267;27;20503;-72
2022/09/25 14:13:45;;;;;;;6.93;3.38;;;;;;;;;;5115057;27;20106;-70
2022/09/25 14:16:44;;;;;;;5.15;3.30;;;;;;;19.65;nan;100247.75;5117381;27;20026;-70
2022/09/25 14:19:14;;;;;;;;;;;;;;;19.65;nan;100222.94;5116405;27;20047;-71
2022/09/25 14:21:43;;;;;;;8.63;3.53;;;;;;;19.66;nan;100261.94;5118318;27;19912;-71
2022/09/25 14:24:18;;;;;;;;;;;;;;;19.64;nan;100248.06;5120276;27;20056;-70